sensor_id;sensor_type;location;lat;lon;timestamp;P1;durP1;ratioP1;P2;durP2;ratioP2
4353;SDS011;11018;51.258;6.806;2023-06-10T00:02:28;14.88;;;11.32;;
4353;SDS011;11018;51.258;6.806;2023-06-10T00:04:53;13.73;;;10.90;;
4353;SDS011;11018;51.258;6.806;2023-06-10T00:07:19;13.10;;;10.97;;
4353;SDS011;11018;51.258;6.806;2023-06-10T00:09:44;13.88;;;10.70;;
4353;SDS011;11018;51.258;6.806;2023-06-10T00:12:10;14.70;;;11.10;;
4353;SDS011;11018;51.258;6.806;2023-06-10T00:14:37;13.70;;;10.87;;
4353;SDS011;11018;51.258;6.806;2023-06-10T00:17:05;15.70;;;10.90;;
4353;SDS011;11018;51.258;6.806;2023-06-10T00:19:38;14.00;;;10.88;;
4353;SDS011;11018;51.258;6.806;2023-06-10T00:22:06;14.98;;;11.80;;
4353;SDS011;11018;51.258;6.806;2023-06-10T00:24:32;15.90;;;10.93;;
4353;SDS011;11018;51.258;6.806;2023-06-10T00:26:57;14.47;;;10.33;;
4353;SDS011;11018;51.258;6.806;2023-06-10T00:29:23;14.17;;;10.80;;
4353;SDS011;11018;51.258;6.806;2023-06-10T00:31:49;15.43;;;10.73;;
4353;SDS011;11018;51.258;6.806;2023-06-10T00:34:14;13.87;;;11.40;;
4353;SDS011;11018;51.258;6.806;2023-06-10T00:36:40;14.02;;;11.10;;
4353;SDS011;11018;51.258;6.806;2023-06-10T00:39:05;16.48;;;11.02;;
4353;SDS011;11018;51.258;6.806;2023-06-10T00:41:31;12.87;;;10.80;;
4353;SDS011;11018;51.258;6.806;2023-06-10T00:43:58;13.07;;;11.10;;
4353;SDS011;11018;51.258;6.806;2023-06-10T00:46:24;15.77;;;10.70;;
4353;SDS011;11018;51.258;6.806;2023-06-10T00:48:51;14.93;;;10.85;;
4353;SDS011;11018;51.258;6.806;2023-06-10T00:51:17;12.40;;;11.02;;
4353;SDS011;11018;51.258;6.806;2023-06-10T00:53:44;14.68;;;11.40;;
4353;SDS011;11018;51.258;6.806;2023-06-10T00:56:10;13.80;;;10.75;;
4353;SDS011;11018;51.258;6.806;2023-06-10T00:58:36;12.85;;;10.50;;
4353;SDS011;11018;51.258;6.806;2023-06-10T01:01:02;16.27;;;11.55;;
4353;SDS011;11018;51.258;6.806;2023-06-10T01:03:29;12.88;;;10.73;;
4353;SDS011;11018;51.258;6.806;2023-06-10T01:05:59;18.90;;;11.90;;
4353;SDS011;11018;51.258;6.806;2023-06-10T01:08:46;18.67;;;11.60;;
4353;SDS011;11018;51.258;6.806;2023-06-10T01:11:34;13.45;;;10.90;;
4353;SDS011;11018;51.258;6.806;2023-06-10T01:14:06;14.30;;;11.93;;
4353;SDS011;11018;51.258;6.806;2023-06-10T01:16:34;15.90;;;12.00;;
4353;SDS011;11018;51.258;6.806;2023-06-10T01:19:01;16.08;;;11.80;;
4353;SDS011;11018;51.258;6.806;2023-06-10T01:21:27;15.90;;;12.15;;
4353;SDS011;11018;51.258;6.806;2023-06-10T01:23:53;13.18;;;11.07;;
4353;SDS011;11018;51.258;6.806;2023-06-10T01:26:22;18.20;;;12.80;;
4353;SDS011;11018;51.258;6.806;2023-06-10T01:29:14;16.00;;;12.00;;
4353;SDS011;11018;51.258;6.806;2023-06-10T01:34:48;14.07;;;11.55;;
4353;SDS011;11018;51.258;6.806;2023-06-10T01:37:16;13.65;;;11.48;;
4353;SDS011;11018;51.258;6.806;2023-06-10T01:39:43;15.70;;;12.43;;
4353;SDS011;11018;51.258;6.806;2023-06-10T01:42:12;15.75;;;12.15;;
4353;SDS011;11018;51.258;6.806;2023-06-10T01:44:38;17.25;;;12.43;;
4353;SDS011;11018;51.258;6.806;2023-06-10T01:47:04;15.48;;;12.60;;
4353;SDS011;11018;51.258;6.806;2023-06-10T01:49:30;14.88;;;12.90;;
4353;SDS011;11018;51.258;6.806;2023-06-10T01:51:56;17.33;;;11.87;;
4353;SDS011;11018;51.258;6.806;2023-06-10T01:54:21;19.40;;;12.60;;
4353;SDS011;11018;51.258;6.806;2023-06-10T01:56:47;17.02;;;13.18;;
4353;SDS011;11018;51.258;6.806;2023-06-10T01:59:12;15.90;;;12.90;;
4353;SDS011;11018;51.258;6.806;2023-06-10T02:01:38;15.23;;;11.95;;
4353;SDS011;11018;51.258;6.806;2023-06-10T02:04:03;17.77;;;12.60;;
4353;SDS011;11018;51.258;6.806;2023-06-10T02:06:29;18.83;;;12.73;;
4353;SDS011;11018;51.258;6.806;2023-06-10T02:08:55;13.85;;;12.35;;
4353;SDS011;11018;51.258;6.806;2023-06-10T02:11:20;18.30;;;12.77;;
4353;SDS011;11018;51.258;6.806;2023-06-10T02:13:46;15.77;;;12.68;;
4353;SDS011;11018;51.258;6.806;2023-06-10T02:16:12;16.10;;;12.52;;
4353;SDS011;11018;51.258;6.806;2023-06-10T02:18:38;18.43;;;12.63;;
4353;SDS011;11018;51.258;6.806;2023-06-10T02:21:07;17.33;;;12.90;;
4353;SDS011;11018;51.258;6.806;2023-06-10T02:23:33;17.93;;;12.63;;
4353;SDS011;11018;51.258;6.806;2023-06-10T02:25:59;14.18;;;12.57;;
4353;SDS011;11018;51.258;6.806;2023-06-10T02:28:24;17.33;;;12.38;;
4353;SDS011;11018;51.258;6.806;2023-06-10T02:30:50;15.30;;;13.00;;
4353;SDS011;11018;51.258;6.806;2023-06-10T02:33:16;17.58;;;13.60;;
4353;SDS011;11018;51.258;6.806;2023-06-10T02:35:42;15.70;;;12.93;;
4353;SDS011;11018;51.258;6.806;2023-06-10T02:38:08;18.13;;;13.97;;
4353;SDS011;11018;51.258;6.806;2023-06-10T02:40:33;16.07;;;13.77;;
4353;SDS011;11018;51.258;6.806;2023-06-10T02:42:59;18.52;;;13.80;;
4353;SDS011;11018;51.258;6.806;2023-06-10T02:45:25;17.70;;;14.50;;
4353;SDS011;11018;51.258;6.806;2023-06-10T02:47:50;17.37;;;13.40;;
4353;SDS011;11018;51.258;6.806;2023-06-10T02:50:16;15.77;;;13.83;;
4353;SDS011;11018;51.258;6.806;2023-06-10T02:52:43;17.88;;;14.05;;
4353;SDS011;11018;51.258;6.806;2023-06-10T02:55:08;18.20;;;13.25;;
4353;SDS011;11018;51.258;6.806;2023-06-10T02:57:34;17.50;;;13.80;;
4353;SDS011;11018;51.258;6.806;2023-06-10T03:00:00;16.27;;;13.77;;
4353;SDS011;11018;51.258;6.806;2023-06-10T03:02:27;16.65;;;13.50;;
4353;SDS011;11018;51.258;6.806;2023-06-10T03:04:54;18.23;;;14.25;;
4353;SDS011;11018;51.258;6.806;2023-06-10T03:07:20;17.98;;;14.63;;
4353;SDS011;11018;51.258;6.806;2023-06-10T03:09:46;18.13;;;14.30;;
4353;SDS011;11018;51.258;6.806;2023-06-10T03:12:12;17.95;;;14.90;;
4353;SDS011;11018;51.258;6.806;2023-06-10T03:14:37;18.83;;;14.93;;
4353;SDS011;11018;51.258;6.806;2023-06-10T03:17:04;18.73;;;14.98;;
4353;SDS011;11018;51.258;6.806;2023-06-10T03:19:30;16.45;;;14.27;;
4353;SDS011;11018;51.258;6.806;2023-06-10T03:22:12;17.07;;;14.40;;
4353;SDS011;11018;51.258;6.806;2023-06-10T03:24:39;19.05;;;15.00;;
4353;SDS011;11018;51.258;6.806;2023-06-10T03:27:08;20.23;;;15.73;;
4353;SDS011;11018;51.258;6.806;2023-06-10T03:29:34;17.73;;;15.02;;
4353;SDS011;11018;51.258;6.806;2023-06-10T03:32:01;18.65;;;15.07;;
4353;SDS011;11018;51.258;6.806;2023-06-10T03:34:26;20.40;;;15.40;;
4353;SDS011;11018;51.258;6.806;2023-06-10T03:36:52;19.85;;;15.60;;
4353;SDS011;11018;51.258;6.806;2023-06-10T03:39:18;18.40;;;15.30;;
4353;SDS011;11018;51.258;6.806;2023-06-10T03:41:43;20.80;;;15.40;;
4353;SDS011;11018;51.258;6.806;2023-06-10T03:44:09;19.50;;;15.80;;
4353;SDS011;11018;51.258;6.806;2023-06-10T03:46:34;23.10;;;15.70;;
4353;SDS011;11018;51.258;6.806;2023-06-10T03:49:00;19.93;;;16.03;;
4353;SDS011;11018;51.258;6.806;2023-06-10T03:51:26;21.40;;;15.32;;
4353;SDS011;11018;51.258;6.806;2023-06-10T03:53:52;19.73;;;16.27;;
4353;SDS011;11018;51.258;6.806;2023-06-10T03:56:18;19.52;;;15.75;;
4353;SDS011;11018;51.258;6.806;2023-06-10T03:58:43;23.00;;;15.70;;
4353;SDS011;11018;51.258;6.806;2023-06-10T04:01:09;19.73;;;16.15;;
4353;SDS011;11018;51.258;6.806;2023-06-10T04:03:35;19.58;;;15.80;;
4353;SDS011;11018;51.258;6.806;2023-06-10T04:06:01;18.55;;;15.45;;
4353;SDS011;11018;51.258;6.806;2023-06-10T04:08:27;18.58;;;14.88;;
4353;SDS011;11018;51.258;6.806;2023-06-10T04:10:53;18.87;;;14.83;;
4353;SDS011;11018;51.258;6.806;2023-06-10T04:13:18;19.13;;;15.05;;
4353;SDS011;11018;51.258;6.806;2023-06-10T04:15:44;20.42;;;15.85;;
4353;SDS011;11018;51.258;6.806;2023-06-10T04:18:10;20.95;;;15.40;;
4353;SDS011;11018;51.258;6.806;2023-06-10T04:20:36;18.40;;;15.23;;
4353;SDS011;11018;51.258;6.806;2023-06-10T04:23:01;19.50;;;14.70;;
4353;SDS011;11018;51.258;6.806;2023-06-10T04:25:27;20.07;;;15.23;;
4353;SDS011;11018;51.258;6.806;2023-06-10T04:27:53;18.20;;;14.47;;
4353;SDS011;11018;51.258;6.806;2023-06-10T04:30:19;20.50;;;14.63;;
4353;SDS011;11018;51.258;6.806;2023-06-10T04:32:45;18.23;;;13.60;;
4353;SDS011;11018;51.258;6.806;2023-06-10T04:35:12;20.88;;;14.43;;
4353;SDS011;11018;51.258;6.806;2023-06-10T04:37:38;17.95;;;14.20;;
4353;SDS011;11018;51.258;6.806;2023-06-10T04:40:05;18.00;;;14.45;;
4353;SDS011;11018;51.258;6.806;2023-06-10T04:42:31;19.20;;;13.50;;
4353;SDS011;11018;51.258;6.806;2023-06-10T04:44:57;17.87;;;13.60;;
4353;SDS011;11018;51.258;6.806;2023-06-10T04:47:22;17.85;;;14.27;;
4353;SDS011;11018;51.258;6.806;2023-06-10T04:49:48;17.57;;;14.10;;
4353;SDS011;11018;51.258;6.806;2023-06-10T04:52:13;18.23;;;14.60;;
4353;SDS011;11018;51.258;6.806;2023-06-10T04:54:39;18.60;;;13.88;;
4353;SDS011;11018;51.258;6.806;2023-06-10T04:57:05;17.70;;;14.00;;
4353;SDS011;11018;51.258;6.806;2023-06-10T04:59:32;18.48;;;13.88;;
4353;SDS011;11018;51.258;6.806;2023-06-10T05:02:02;16.83;;;13.25;;
4353;SDS011;11018;51.258;6.806;2023-06-10T05:04:28;16.73;;;13.40;;
4353;SDS011;11018;51.258;6.806;2023-06-10T05:06:54;18.10;;;13.90;;
4353;SDS011;11018;51.258;6.806;2023-06-10T05:09:20;18.42;;;13.55;;
4353;SDS011;11018;51.258;6.806;2023-06-10T05:11:46;16.93;;;13.80;;
4353;SDS011;11018;51.258;6.806;2023-06-10T05:14:11;19.70;;;13.60;;
4353;SDS011;11018;51.258;6.806;2023-06-10T05:16:37;18.55;;;14.70;;
4353;SDS011;11018;51.258;6.806;2023-06-10T05:19:03;18.33;;;13.75;;
4353;SDS011;11018;51.258;6.806;2023-06-10T05:21:29;19.48;;;14.23;;
4353;SDS011;11018;51.258;6.806;2023-06-10T05:23:55;18.48;;;14.13;;
4353;SDS011;11018;51.258;6.806;2023-06-10T05:26:21;20.05;;;14.52;;
4353;SDS011;11018;51.258;6.806;2023-06-10T05:28:47;24.33;;;14.40;;
4353;SDS011;11018;51.258;6.806;2023-06-10T05:31:13;17.52;;;14.32;;
4353;SDS011;11018;51.258;6.806;2023-06-10T05:33:38;19.25;;;15.15;;
4353;SDS011;11018;51.258;6.806;2023-06-10T05:36:04;18.52;;;14.73;;
4353;SDS011;11018;51.258;6.806;2023-06-10T05:38:30;16.73;;;13.85;;
4353;SDS011;11018;51.258;6.806;2023-06-10T05:40:56;20.05;;;14.45;;
4353;SDS011;11018;51.258;6.806;2023-06-10T05:43:23;19.07;;;14.80;;
4353;SDS011;11018;51.258;6.806;2023-06-10T05:45:49;20.87;;;14.60;;
4353;SDS011;11018;51.258;6.806;2023-06-10T05:48:14;18.45;;;14.73;;
4353;SDS011;11018;51.258;6.806;2023-06-10T05:50:40;20.57;;;13.70;;
4353;SDS011;11018;51.258;6.806;2023-06-10T05:53:07;16.70;;;14.20;;
4353;SDS011;11018;51.258;6.806;2023-06-10T05:55:43;17.13;;;14.00;;
4353;SDS011;11018;51.258;6.806;2023-06-10T05:58:09;15.38;;;13.68;;
4353;SDS011;11018;51.258;6.806;2023-06-10T06:00:37;19.52;;;13.75;;
4353;SDS011;11018;51.258;6.806;2023-06-10T06:03:03;18.70;;;13.90;;
4353;SDS011;11018;51.258;6.806;2023-06-10T06:05:28;17.17;;;13.47;;
4353;SDS011;11018;51.258;6.806;2023-06-10T06:07:59;14.90;;;12.93;;
4353;SDS011;11018;51.258;6.806;2023-06-10T06:10:26;18.30;;;13.60;;
4353;SDS011;11018;51.258;6.806;2023-06-10T06:12:52;20.23;;;13.10;;
4353;SDS011;11018;51.258;6.806;2023-06-10T06:15:17;17.10;;;13.18;;
4353;SDS011;11018;51.258;6.806;2023-06-10T06:17:43;15.07;;;12.70;;
4353;SDS011;11018;51.258;6.806;2023-06-10T06:20:08;17.10;;;12.70;;
4353;SDS011;11018;51.258;6.806;2023-06-10T06:22:34;16.05;;;12.50;;
4353;SDS011;11018;51.258;6.806;2023-06-10T06:25:00;18.23;;;13.13;;
4353;SDS011;11018;51.258;6.806;2023-06-10T06:27:25;15.47;;;12.30;;
4353;SDS011;11018;51.258;6.806;2023-06-10T06:29:51;22.27;;;15.80;;
4353;SDS011;11018;51.258;6.806;2023-06-10T06:32:16;26.10;;;18.43;;
4353;SDS011;11018;51.258;6.806;2023-06-10T06:34:42;18.42;;;14.63;;
4353;SDS011;11018;51.258;6.806;2023-06-10T06:37:07;25.00;;;17.03;;
4353;SDS011;11018;51.258;6.806;2023-06-10T06:39:33;17.87;;;13.00;;
4353;SDS011;11018;51.258;6.806;2023-06-10T06:41:58;18.10;;;14.00;;
4353;SDS011;11018;51.258;6.806;2023-06-10T06:44:24;18.97;;;13.87;;
4353;SDS011;11018;51.258;6.806;2023-06-10T06:46:50;27.70;;;18.95;;
4353;SDS011;11018;51.258;6.806;2023-06-10T06:49:15;19.40;;;15.03;;
4353;SDS011;11018;51.258;6.806;2023-06-10T06:51:41;21.10;;;12.68;;
4353;SDS011;11018;51.258;6.806;2023-06-10T06:54:06;15.57;;;12.25;;
4353;SDS011;11018;51.258;6.806;2023-06-10T06:56:32;17.27;;;11.70;;
4353;SDS011;11018;51.258;6.806;2023-06-10T06:58:57;13.55;;;10.77;;
4353;SDS011;11018;51.258;6.806;2023-06-10T07:01:23;14.13;;;11.80;;
4353;SDS011;11018;51.258;6.806;2023-06-10T07:03:49;17.60;;;11.80;;
4353;SDS011;11018;51.258;6.806;2023-06-10T07:06:14;14.77;;;12.18;;
4353;SDS011;11018;51.258;6.806;2023-06-10T07:08:40;14.53;;;11.03;;
4353;SDS011;11018;51.258;6.806;2023-06-10T07:11:05;19.52;;;11.27;;
4353;SDS011;11018;51.258;6.806;2023-06-10T07:13:31;15.17;;;11.17;;
4353;SDS011;11018;51.258;6.806;2023-06-10T07:15:56;13.25;;;11.25;;
4353;SDS011;11018;51.258;6.806;2023-06-10T07:18:22;15.27;;;11.80;;
4353;SDS011;11018;51.258;6.806;2023-06-10T07:20:48;14.50;;;11.23;;
4353;SDS011;11018;51.258;6.806;2023-06-10T07:23:13;13.60;;;10.70;;
4353;SDS011;11018;51.258;6.806;2023-06-10T07:25:40;14.70;;;10.50;;
4353;SDS011;11018;51.258;6.806;2023-06-10T07:28:06;16.60;;;11.38;;
4353;SDS011;11018;51.258;6.806;2023-06-10T07:30:32;16.58;;;11.95;;
4353;SDS011;11018;51.258;6.806;2023-06-10T07:32:57;13.80;;;10.87;;
4353;SDS011;11018;51.258;6.806;2023-06-10T07:35:23;13.63;;;10.67;;
4353;SDS011;11018;51.258;6.806;2023-06-10T07:37:48;17.75;;;10.63;;
4353;SDS011;11018;51.258;6.806;2023-06-10T07:40:14;14.63;;;10.50;;
4353;SDS011;11018;51.258;6.806;2023-06-10T07:42:39;12.32;;;9.45;;
4353;SDS011;11018;51.258;6.806;2023-06-10T07:45:05;15.23;;;9.97;;
4353;SDS011;11018;51.258;6.806;2023-06-10T07:47:32;12.82;;;9.52;;
4353;SDS011;11018;51.258;6.806;2023-06-10T07:49:58;15.40;;;10.20;;
4353;SDS011;11018;51.258;6.806;2023-06-10T07:52:24;14.32;;;10.00;;
4353;SDS011;11018;51.258;6.806;2023-06-10T07:54:50;14.52;;;10.50;;
4353;SDS011;11018;51.258;6.806;2023-06-10T07:57:17;14.45;;;10.48;;
4353;SDS011;11018;51.258;6.806;2023-06-10T07:59:44;12.63;;;10.70;;
4353;SDS011;11018;51.258;6.806;2023-06-10T08:02:09;12.23;;;9.98;;
4353;SDS011;11018;51.258;6.806;2023-06-10T08:04:35;13.75;;;10.00;;
4353;SDS011;11018;51.258;6.806;2023-06-10T08:07:01;12.57;;;9.93;;
4353;SDS011;11018;51.258;6.806;2023-06-10T08:09:27;13.00;;;10.50;;
4353;SDS011;11018;51.258;6.806;2023-06-10T08:11:53;14.37;;;10.33;;
4353;SDS011;11018;51.258;6.806;2023-06-10T08:14:18;19.58;;;10.68;;
4353;SDS011;11018;51.258;6.806;2023-06-10T08:16:44;13.83;;;9.90;;
4353;SDS011;11018;51.258;6.806;2023-06-10T08:19:10;14.20;;;10.20;;
4353;SDS011;11018;51.258;6.806;2023-06-10T08:21:35;17.03;;;9.80;;
4353;SDS011;11018;51.258;6.806;2023-06-10T08:24:05;14.93;;;9.02;;
4353;SDS011;11018;51.258;6.806;2023-06-10T08:26:31;15.85;;;10.23;;
4353;SDS011;11018;51.258;6.806;2023-06-10T08:28:57;15.93;;;9.57;;
4353;SDS011;11018;51.258;6.806;2023-06-10T08:31:23;11.15;;;9.23;;
4353;SDS011;11018;51.258;6.806;2023-06-10T08:33:49;14.90;;;9.95;;
4353;SDS011;11018;51.258;6.806;2023-06-10T08:36:14;16.63;;;10.47;;
4353;SDS011;11018;51.258;6.806;2023-06-10T08:38:40;15.27;;;9.93;;
4353;SDS011;11018;51.258;6.806;2023-06-10T08:41:06;11.00;;;9.30;;
4353;SDS011;11018;51.258;6.806;2023-06-10T08:43:33;11.23;;;9.63;;
4353;SDS011;11018;51.258;6.806;2023-06-10T08:46:06;14.15;;;10.23;;
4353;SDS011;11018;51.258;6.806;2023-06-10T08:48:34;13.70;;;9.90;;
4353;SDS011;11018;51.258;6.806;2023-06-10T08:51:01;12.97;;;9.63;;
4353;SDS011;11018;51.258;6.806;2023-06-10T08:53:29;13.50;;;10.20;;
4353;SDS011;11018;51.258;6.806;2023-06-10T08:55:58;12.38;;;10.02;;
4353;SDS011;11018;51.258;6.806;2023-06-10T08:58:27;12.93;;;9.98;;
4353;SDS011;11018;51.258;6.806;2023-06-10T09:00:53;15.52;;;10.25;;
4353;SDS011;11018;51.258;6.806;2023-06-10T09:03:19;12.73;;;10.50;;
4353;SDS011;11018;51.258;6.806;2023-06-10T09:05:46;18.92;;;11.80;;
4353;SDS011;11018;51.258;6.806;2023-06-10T09:08:13;17.77;;;11.00;;
4353;SDS011;11018;51.258;6.806;2023-06-10T09:10:40;11.33;;;9.90;;
4353;SDS011;11018;51.258;6.806;2023-06-10T09:13:06;15.10;;;10.57;;
4353;SDS011;11018;51.258;6.806;2023-06-10T09:15:31;17.60;;;10.73;;
4353;SDS011;11018;51.258;6.806;2023-06-10T09:17:57;13.90;;;10.20;;
4353;SDS011;11018;51.258;6.806;2023-06-10T09:20:24;13.25;;;11.38;;
4353;SDS011;11018;51.258;6.806;2023-06-10T09:22:50;18.05;;;11.50;;
4353;SDS011;11018;51.258;6.806;2023-06-10T09:25:16;14.10;;;10.43;;
4353;SDS011;11018;51.258;6.806;2023-06-10T09:30:23;14.32;;;9.60;;
4353;SDS011;11018;51.258;6.806;2023-06-10T09:32:51;17.33;;;9.80;;
4353;SDS011;11018;51.258;6.806;2023-06-10T09:35:18;13.55;;;10.40;;
4353;SDS011;11018;51.258;6.806;2023-06-10T09:37:44;18.45;;;11.23;;
4353;SDS011;11018;51.258;6.806;2023-06-10T09:40:11;12.07;;;9.30;;
4353;SDS011;11018;51.258;6.806;2023-06-10T09:42:38;13.25;;;9.80;;
4353;SDS011;11018;51.258;6.806;2023-06-10T09:45:04;19.90;;;10.13;;
4353;SDS011;11018;51.258;6.806;2023-06-10T09:47:30;12.53;;;9.80;;
4353;SDS011;11018;51.258;6.806;2023-06-10T09:49:56;11.25;;;10.02;;
4353;SDS011;11018;51.258;6.806;2023-06-10T09:52:22;15.03;;;11.00;;
4353;SDS011;11018;51.258;6.806;2023-06-10T09:54:49;14.10;;;9.55;;
4353;SDS011;11018;51.258;6.806;2023-06-10T09:57:16;14.85;;;9.25;;
4353;SDS011;11018;51.258;6.806;2023-06-10T09:59:42;13.53;;;9.43;;
4353;SDS011;11018;51.258;6.806;2023-06-10T10:02:13;18.27;;;10.13;;
4353;SDS011;11018;51.258;6.806;2023-06-10T10:04:39;12.30;;;9.07;;
4353;SDS011;11018;51.258;6.806;2023-06-10T10:07:05;16.57;;;9.73;;
4353;SDS011;11018;51.258;6.806;2023-06-10T10:09:32;12.90;;;9.40;;
4353;SDS011;11018;51.258;6.806;2023-06-10T10:11:57;14.37;;;9.10;;
4353;SDS011;11018;51.258;6.806;2023-06-10T10:14:26;12.20;;;9.50;;
4353;SDS011;11018;51.258;6.806;2023-06-10T10:16:54;12.20;;;8.98;;
4353;SDS011;11018;51.258;6.806;2023-06-10T10:19:28;13.50;;;9.55;;
4353;SDS011;11018;51.258;6.806;2023-06-10T10:21:57;12.07;;;9.00;;
4353;SDS011;11018;51.258;6.806;2023-06-10T10:24:36;10.52;;;8.70;;
4353;SDS011;11018;51.258;6.806;2023-06-10T10:27:09;14.98;;;9.25;;
4353;SDS011;11018;51.258;6.806;2023-06-10T10:29:41;12.23;;;9.20;;
4353;SDS011;11018;51.258;6.806;2023-06-10T10:32:12;15.10;;;9.65;;
4353;SDS011;11018;51.258;6.806;2023-06-10T10:34:53;11.65;;;9.27;;
4353;SDS011;11018;51.258;6.806;2023-06-10T10:37:43;13.30;;;8.23;;
4353;SDS011;11018;51.258;6.806;2023-06-10T10:40:08;14.70;;;9.80;;
4353;SDS011;11018;51.258;6.806;2023-06-10T10:42:36;19.02;;;10.13;;
4353;SDS011;11018;51.258;6.806;2023-06-10T10:45:02;9.98;;;8.70;;
4353;SDS011;11018;51.258;6.806;2023-06-10T10:47:29;11.98;;;8.60;;
4353;SDS011;11018;51.258;6.806;2023-06-10T10:49:55;13.90;;;8.50;;
4353;SDS011;11018;51.258;6.806;2023-06-10T10:52:24;9.93;;;8.20;;
4353;SDS011;11018;51.258;6.806;2023-06-10T10:54:50;11.32;;;8.90;;
4353;SDS011;11018;51.258;6.806;2023-06-10T10:59:46;14.52;;;9.10;;
4353;SDS011;11018;51.258;6.806;2023-06-10T11:05:05;13.85;;;8.88;;
4353;SDS011;11018;51.258;6.806;2023-06-10T11:07:32;14.38;;;9.05;;
4353;SDS011;11018;51.258;6.806;2023-06-10T11:09:59;15.85;;;7.90;;
4353;SDS011;11018;51.258;6.806;2023-06-10T11:12:33;11.60;;;8.98;;
4353;SDS011;11018;51.258;6.806;2023-06-10T11:15:10;13.45;;;8.55;;
4353;SDS011;11018;51.258;6.806;2023-06-10T11:31:41;13.68;;;8.43;;
4353;SDS011;11018;51.258;6.806;2023-06-10T11:34:06;11.50;;;8.10;;
4353;SDS011;11018;51.258;6.806;2023-06-10T11:36:33;10.93;;;8.63;;
4353;SDS011;11018;51.258;6.806;2023-06-10T11:39:05;13.20;;;8.30;;
4353;SDS011;11018;51.258;6.806;2023-06-10T11:41:32;11.02;;;8.68;;
4353;SDS011;11018;51.258;6.806;2023-06-10T11:44:02;13.52;;;9.23;;
4353;SDS011;11018;51.258;6.806;2023-06-10T11:46:29;11.48;;;8.60;;
4353;SDS011;11018;51.258;6.806;2023-06-10T11:48:55;12.23;;;8.23;;
4353;SDS011;11018;51.258;6.806;2023-06-10T11:51:24;11.68;;;7.88;;
4353;SDS011;11018;51.258;6.806;2023-06-10T11:53:50;11.00;;;8.93;;
4353;SDS011;11018;51.258;6.806;2023-06-10T11:56:25;11.30;;;8.05;;
4353;SDS011;11018;51.258;6.806;2023-06-10T11:58:53;13.77;;;7.90;;
4353;SDS011;11018;51.258;6.806;2023-06-10T12:01:35;10.48;;;8.55;;
4353;SDS011;11018;51.258;6.806;2023-06-10T12:04:08;11.73;;;9.80;;
4353;SDS011;11018;51.258;6.806;2023-06-10T12:09:13;10.75;;;9.27;;
4353;SDS011;11018;51.258;6.806;2023-06-10T12:11:56;11.80;;;8.37;;
4353;SDS011;11018;51.258;6.806;2023-06-10T12:17:22;9.10;;;8.20;;
4353;SDS011;11018;51.258;6.806;2023-06-10T12:19:57;10.18;;;9.07;;
4353;SDS011;11018;51.258;6.806;2023-06-10T12:22:23;14.82;;;9.23;;
4353;SDS011;11018;51.258;6.806;2023-06-10T12:24:59;12.80;;;8.48;;
4353;SDS011;11018;51.258;6.806;2023-06-10T12:27:30;9.88;;;8.70;;
4353;SDS011;11018;51.258;6.806;2023-06-10T12:29:57;9.10;;;8.10;;
4353;SDS011;11018;51.258;6.806;2023-06-10T12:32:34;9.70;;;8.70;;
4353;SDS011;11018;51.258;6.806;2023-06-10T12:35:04;11.40;;;8.63;;
4353;SDS011;11018;51.258;6.806;2023-06-10T12:37:31;9.38;;;8.32;;
4353;SDS011;11018;51.258;6.806;2023-06-10T12:40:01;11.32;;;9.10;;
4353;SDS011;11018;51.258;6.806;2023-06-10T12:42:28;12.55;;;9.60;;
4353;SDS011;11018;51.258;6.806;2023-06-10T12:44:55;12.65;;;8.30;;
4353;SDS011;11018;51.258;6.806;2023-06-10T12:47:28;13.00;;;8.98;;
4353;SDS011;11018;51.258;6.806;2023-06-10T12:49:59;9.95;;;8.95;;
4353;SDS011;11018;51.258;6.806;2023-06-10T12:52:25;14.88;;;9.75;;
4353;SDS011;11018;51.258;6.806;2023-06-10T12:54:51;15.43;;;9.57;;
4353;SDS011;11018;51.258;6.806;2023-06-10T12:57:17;12.82;;;10.05;;
4353;SDS011;11018;51.258;6.806;2023-06-10T12:59:43;14.27;;;8.98;;
4353;SDS011;11018;51.258;6.806;2023-06-10T13:02:15;11.25;;;8.68;;
4353;SDS011;11018;51.258;6.806;2023-06-10T13:04:41;11.13;;;8.18;;
4353;SDS011;11018;51.258;6.806;2023-06-10T13:07:08;8.50;;;7.60;;
4353;SDS011;11018;51.258;6.806;2023-06-10T13:09:35;13.50;;;8.53;;
4353;SDS011;11018;51.258;6.806;2023-06-10T13:12:01;9.02;;;7.90;;
4353;SDS011;11018;51.258;6.806;2023-06-10T13:14:27;9.20;;;8.18;;
4353;SDS011;11018;51.258;6.806;2023-06-10T13:16:53;12.60;;;9.02;;
4353;SDS011;11018;51.258;6.806;2023-06-10T13:19:20;9.33;;;8.33;;
4353;SDS011;11018;51.258;6.806;2023-06-10T13:21:46;9.40;;;8.40;;
4353;SDS011;11018;51.258;6.806;2023-06-10T13:24:12;11.93;;;8.90;;
4353;SDS011;11018;51.258;6.806;2023-06-10T13:26:38;11.77;;;8.37;;
4353;SDS011;11018;51.258;6.806;2023-06-10T13:29:04;11.67;;;8.43;;
4353;SDS011;11018;51.258;6.806;2023-06-10T13:31:30;10.00;;;8.40;;
4353;SDS011;11018;51.258;6.806;2023-06-10T13:33:57;9.20;;;7.55;;
4353;SDS011;11018;51.258;6.806;2023-06-10T13:36:23;12.70;;;8.20;;
4353;SDS011;11018;51.258;6.806;2023-06-10T13:38:48;9.98;;;8.15;;
4353;SDS011;11018;51.258;6.806;2023-06-10T13:41:14;10.80;;;8.80;;
4353;SDS011;11018;51.258;6.806;2023-06-10T13:43:39;9.43;;;8.37;;
4353;SDS011;11018;51.258;6.806;2023-06-10T13:46:05;10.15;;;8.23;;
4353;SDS011;11018;51.258;6.806;2023-06-10T13:48:31;10.25;;;8.65;;
4353;SDS011;11018;51.258;6.806;2023-06-10T13:50:56;12.30;;;8.63;;
4353;SDS011;11018;51.258;6.806;2023-06-10T13:53:22;10.13;;;9.02;;
4353;SDS011;11018;51.258;6.806;2023-06-10T13:55:48;8.80;;;7.90;;
4353;SDS011;11018;51.258;6.806;2023-06-10T13:58:14;9.63;;;8.48;;
4353;SDS011;11018;51.258;6.806;2023-06-10T14:00:39;10.68;;;8.60;;
4353;SDS011;11018;51.258;6.806;2023-06-10T14:03:05;11.63;;;9.00;;
4353;SDS011;11018;51.258;6.806;2023-06-10T14:05:30;12.30;;;8.70;;
4353;SDS011;11018;51.258;6.806;2023-06-10T14:07:56;9.50;;;8.30;;
4353;SDS011;11018;51.258;6.806;2023-06-10T14:10:22;9.37;;;8.00;;
4353;SDS011;11018;51.258;6.806;2023-06-10T14:12:47;12.00;;;8.50;;
4353;SDS011;11018;51.258;6.806;2023-06-10T14:15:13;14.38;;;7.88;;
4353;SDS011;11018;51.258;6.806;2023-06-10T14:17:38;11.88;;;8.27;;
4353;SDS011;11018;51.258;6.806;2023-06-10T14:20:04;12.50;;;8.63;;
4353;SDS011;11018;51.258;6.806;2023-06-10T14:22:30;9.57;;;7.93;;
4353;SDS011;11018;51.258;6.806;2023-06-10T14:24:56;9.97;;;8.17;;
4353;SDS011;11018;51.258;6.806;2023-06-10T14:27:21;10.60;;;8.40;;
4353;SDS011;11018;51.258;6.806;2023-06-10T14:29:47;10.63;;;8.20;;
4353;SDS011;11018;51.258;6.806;2023-06-10T14:32:12;12.10;;;8.50;;
4353;SDS011;11018;51.258;6.806;2023-06-10T14:34:38;10.70;;;7.97;;
4353;SDS011;11018;51.258;6.806;2023-06-10T14:37:04;10.13;;;8.53;;
4353;SDS011;11018;51.258;6.806;2023-06-10T14:39:32;12.27;;;8.38;;
4353;SDS011;11018;51.258;6.806;2023-06-10T14:41:58;12.93;;;8.60;;
4353;SDS011;11018;51.258;6.806;2023-06-10T14:44:23;12.05;;;8.60;;
4353;SDS011;11018;51.258;6.806;2023-06-10T14:46:49;10.83;;;8.57;;
4353;SDS011;11018;51.258;6.806;2023-06-10T14:49:15;11.70;;;8.73;;
4353;SDS011;11018;51.258;6.806;2023-06-10T14:51:40;10.15;;;8.15;;
4353;SDS011;11018;51.258;6.806;2023-06-10T14:54:06;10.73;;;7.53;;
4353;SDS011;11018;51.258;6.806;2023-06-10T14:56:31;10.80;;;8.43;;
4353;SDS011;11018;51.258;6.806;2023-06-10T14:58:57;11.63;;;8.23;;
4353;SDS011;11018;51.258;6.806;2023-06-10T15:01:22;13.85;;;7.70;;
4353;SDS011;11018;51.258;6.806;2023-06-10T15:03:48;12.10;;;7.90;;
4353;SDS011;11018;51.258;6.806;2023-06-10T15:06:13;12.43;;;8.00;;
4353;SDS011;11018;51.258;6.806;2023-06-10T15:08:42;9.65;;;8.48;;
4353;SDS011;11018;51.258;6.806;2023-06-10T15:11:07;9.80;;;7.20;;